sensor_id;sensor_type;location;lat;lon;timestamp;pressure;altitude;pressure_sealevel;temperature;humidity
19286;BME280;9776;50.798;6.430;2022-11-20T00:00:04;99820.91;;;5.91;70.02
19286;BME280;9776;50.798;6.430;2022-11-20T00:02:31;99815.41;;;5.94;70.00
19286;BME280;9776;50.798;6.430;2022-11-20T00:04:58;99818.72;;;5.96;69.89
19286;BME280;9776;50.798;6.430;2022-11-20T00:07:26;99824.63;;;5.98;69.79
19286;BME280;9776;50.798;6.430;2022-11-20T00:09:52;99819.81;;;5.93;69.95
19286;BME280;9776;50.798;6.430;2022-11-20T00:12:19;99827.41;;;5.96;69.80
19286;BME280;9776;50.798;6.430;2022-11-20T00:14:45;99832.50;;;5.98;69.77
19286;BME280;9776;50.798;6.430;2022-11-20T00:17:12;99827.84;;;6.01;69.72
19286;BME280;9776;50.798;6.430;2022-11-20T00:19:39;99825.63;;;6.06;69.60
19286;BME280;9776;50.798;6.430;2022-11-20T00:22:05;99830.22;;;6.14;69.39
19286;BME280;9776;50.798;6.430;2022-11-20T00:24:33;99835.03;;;6.09;69.34
19286;BME280;9776;50.798;6.430;2022-11-20T00:27:00;99827.72;;;6.03;69.76
19286;BME280;9776;50.798;6.430;2022-11-20T00:29:26;99820.38;;;5.97;69.73
19286;BME280;9776;50.798;6.430;2022-11-20T00:31:53;99813.88;;;5.91;69.80
19286;BME280;9776;50.798;6.430;2022-11-20T00:34:19;99809.44;;;5.92;69.64
19286;BME280;9776;50.798;6.430;2022-11-20T00:36:46;99811.38;;;5.90;69.65
19286;BME280;9776;50.798;6.430;2022-11-20T00:39:13;99813.66;;;5.83;69.83
19286;BME280;9776;50.798;6.430;2022-11-20T00:41:41;99812.38;;;5.89;69.74
19286;BME280;9776;50.798;6.430;2022-11-20T00:44:07;99809.91;;;5.97;69.47
19286;BME280;9776;50.798;6.430;2022-11-20T00:46:34;99811.28;;;6.01;69.26
19286;BME280;9776;50.798;6.430;2022-11-20T00:49:01;99814.34;;;6.06;69.15
19286;BME280;9776;50.798;6.430;2022-11-20T00:51:28;99811.31;;;6.10;69.18
19286;BME280;9776;50.798;6.430;2022-11-20T00:53:55;99802.09;;;6.16;68.91
19286;BME280;9776;50.798;6.430;2022-11-20T00:56:22;99803.75;;;6.17;68.94
19286;BME280;9776;50.798;6.430;2022-11-20T00:58:50;99805.53;;;6.16;69.06
19286;BME280;9776;50.798;6.430;2022-11-20T01:01:18;99793.66;;;6.12;69.13
19286;BME280;9776;50.798;6.430;2022-11-20T01:03:48;99793.81;;;6.11;69.13
19286;BME280;9776;50.798;6.430;2022-11-20T01:06:16;99793.94;;;6.09;69.02
19286;BME280;9776;50.798;6.430;2022-11-20T01:08:44;99801.78;;;6.09;69.08
19286;BME280;9776;50.798;6.430;2022-11-20T01:11:13;99795.72;;;5.99;69.15
19286;BME280;9776;50.798;6.430;2022-11-20T01:13:41;99797.06;;;5.94;69.52
19286;BME280;9776;50.798;6.430;2022-11-20T01:16:11;99808.41;;;5.83;69.68
19286;BME280;9776;50.798;6.430;2022-11-20T01:18:40;99803.81;;;5.66;70.23
19286;BME280;9776;50.798;6.430;2022-11-20T01:21:09;99795.41;;;5.62;70.16
19286;BME280;9776;50.798;6.430;2022-11-20T01:23:37;99795.34;;;5.53;70.49
19286;BME280;9776;50.798;6.430;2022-11-20T01:26:07;99799.19;;;5.49;70.65
19286;BME280;9776;50.798;6.430;2022-11-20T01:28:34;99802.25;;;5.54;70.35
19286;BME280;9776;50.798;6.430;2022-11-20T01:31:02;99796.19;;;5.53;70.30
19286;BME280;9776;50.798;6.430;2022-11-20T01:33:37;99794.19;;;5.46;70.52
19286;BME280;9776;50.798;6.430;2022-11-20T01:36:04;99800.53;;;5.43;70.67
19286;BME280;9776;50.798;6.430;2022-11-20T01:38:31;99793.00;;;5.29;71.05
19286;BME280;9776;50.798;6.430;2022-11-20T01:40:58;99793.66;;;5.22;71.40
19286;BME280;9776;50.798;6.430;2022-11-20T01:43:25;99786.94;;;5.29;71.16
19286;BME280;9776;50.798;6.430;2022-11-20T01:46:12;99784.97;;;5.21;71.13
19286;BME280;9776;50.798;6.430;2022-11-20T01:48:46;99781.03;;;5.27;71.07
19286;BME280;9776;50.798;6.430;2022-11-20T01:51:19;99785.59;;;5.34;70.79
19286;BME280;9776;50.798;6.430;2022-11-20T01:53:47;99789.88;;;5.35;70.88
19286;BME280;9776;50.798;6.430;2022-11-20T01:56:14;99785.81;;;5.42;70.82
19286;BME280;9776;50.798;6.430;2022-11-20T01:58:44;99775.88;;;5.46;70.60
19286;BME280;9776;50.798;6.430;2022-11-20T02:01:13;99771.22;;;5.49;70.67
19286;BME280;9776;50.798;6.430;2022-11-20T02:03:41;99775.06;;;5.45;70.68
19286;BME280;9776;50.798;6.430;2022-11-20T02:06:13;99776.28;;;5.41;70.73
19286;BME280;9776;50.798;6.430;2022-11-20T02:08:41;99773.59;;;5.32;70.66
19286;BME280;9776;50.798;6.430;2022-11-20T02:11:09;99769.88;;;5.25;70.89
19286;BME280;9776;50.798;6.430;2022-11-20T02:13:35;99775.34;;;5.22;71.10
19286;BME280;9776;50.798;6.430;2022-11-20T02:16:12;99774.78;;;5.18;71.06
19286;BME280;9776;50.798;6.430;2022-11-20T02:18:42;99780.84;;;5.19;71.07
19286;BME280;9776;50.798;6.430;2022-11-20T02:21:23;99784.03;;;5.22;70.95
19286;BME280;9776;50.798;6.430;2022-11-20T02:24:07;99781.59;;;5.30;70.82
19286;BME280;9776;50.798;6.430;2022-11-20T02:26:41;99782.34;;;5.42;70.69
19286;BME280;9776;50.798;6.430;2022-11-20T02:29:09;99782.59;;;5.39;70.88
19286;BME280;9776;50.798;6.430;2022-11-20T02:31:37;99773.50;;;5.33;70.92
19286;BME280;9776;50.798;6.430;2022-11-20T02:34:04;99774.09;;;5.16;71.55
19286;BME280;9776;50.798;6.430;2022-11-20T02:36:33;99778.72;;;5.12;71.90
19286;BME280;9776;50.798;6.430;2022-11-20T02:39:01;99773.56;;;5.22;71.64
19286;BME280;9776;50.798;6.430;2022-11-20T02:41:34;99768.00;;;5.36;71.16
19286;BME280;9776;50.798;6.430;2022-11-20T02:44:01;99773.16;;;5.47;71.11
19286;BME280;9776;50.798;6.430;2022-11-20T02:46:28;99781.44;;;5.52;70.87
19286;BME280;9776;50.798;6.430;2022-11-20T02:48:54;99784.72;;;5.45;70.99
19286;BME280;9776;50.798;6.430;2022-11-20T02:51:21;99779.84;;;5.40;71.34
19286;BME280;9776;50.798;6.430;2022-11-20T02:53:48;99776.03;;;5.44;71.22
19286;BME280;9776;50.798;6.430;2022-11-20T02:56:15;99776.13;;;5.43;71.36
19286;BME280;9776;50.798;6.430;2022-11-20T02:58:43;99778.97;;;5.30;71.54
19286;BME280;9776;50.798;6.430;2022-11-20T03:01:10;99771.72;;;5.13;71.99
19286;BME280;9776;50.798;6.430;2022-11-20T03:03:36;99765.25;;;5.17;72.07
19286;BME280;9776;50.798;6.430;2022-11-20T03:06:03;99761.63;;;5.29;71.72
19286;BME280;9776;50.798;6.430;2022-11-20T03:08:30;99757.53;;;5.36;71.28
19286;BME280;9776;50.798;6.430;2022-11-20T03:10:56;99761.16;;;5.45;71.09
19286;BME280;9776;50.798;6.430;2022-11-20T03:13:24;99752.78;;;5.51;71.10
19286;BME280;9776;50.798;6.430;2022-11-20T03:15:52;99754.41;;;5.52;70.96
19286;BME280;9776;50.798;6.430;2022-11-20T03:18:19;99752.91;;;5.49;70.93
19286;BME280;9776;50.798;6.430;2022-11-20T03:20:45;99751.81;;;5.52;71.07
19286;BME280;9776;50.798;6.430;2022-11-20T03:23:12;99745.22;;;5.57;70.95
19286;BME280;9776;50.798;6.430;2022-11-20T03:25:39;99739.59;;;5.62;70.87
19286;BME280;9776;50.798;6.430;2022-11-20T03:28:05;99734.22;;;5.63;70.87
19286;BME280;9776;50.798;6.430;2022-11-20T03:30:32;99729.41;;;5.68;70.88
19286;BME280;9776;50.798;6.430;2022-11-20T03:33:00;99725.44;;;5.74;70.91
19286;BME280;9776;50.798;6.430;2022-11-20T03:35:27;99725.72;;;5.81;70.80
19286;BME280;9776;50.798;6.430;2022-11-20T03:37:53;99719.16;;;5.86;70.71
19286;BME280;9776;50.798;6.430;2022-11-20T03:40:20;99730.47;;;5.87;70.60
19286;BME280;9776;50.798;6.430;2022-11-20T03:42:46;99727.13;;;5.85;70.66
19286;BME280;9776;50.798;6.430;2022-11-20T03:45:14;99736.78;;;5.84;70.66
19286;BME280;9776;50.798;6.430;2022-11-20T03:47:41;99732.63;;;5.82;70.60
19286;BME280;9776;50.798;6.430;2022-11-20T03:50:11;99730.44;;;5.77;70.63
19286;BME280;9776;50.798;6.430;2022-11-20T03:52:38;99732.22;;;5.77;70.52
19286;BME280;9776;50.798;6.430;2022-11-20T03:55:06;99740.22;;;5.85;70.48
19286;BME280;9776;50.798;6.430;2022-11-20T03:57:33;99734.88;;;5.86;70.49
19286;BME280;9776;50.798;6.430;2022-11-20T04:00:00;99736.13;;;5.92;70.50
19286;BME280;9776;50.798;6.430;2022-11-20T04:02:26;99740.13;;;5.96;70.47
19286;BME280;9776;50.798;6.430;2022-11-20T04:04:53;99736.84;;;5.94;70.39
19286;BME280;9776;50.798;6.430;2022-11-20T04:07:21;99731.97;;;5.89;70.64
19286;BME280;9776;50.798;6.430;2022-11-20T04:09:47;99732.44;;;5.94;70.51
19286;BME280;9776;50.798;6.430;2022-11-20T04:12:14;99722.63;;;5.96;70.46
19286;BME280;9776;50.798;6.430;2022-11-20T04:14:41;99725.56;;;6.03;70.35
19286;BME280;9776;50.798;6.430;2022-11-20T04:17:07;99724.84;;;6.01;70.19
19286;BME280;9776;50.798;6.430;2022-11-20T04:19:34;99724.41;;;5.96;70.44
19286;BME280;9776;50.798;6.430;2022-11-20T04:22:00;99728.28;;;6.01;70.41
19286;BME280;9776;50.798;6.430;2022-11-20T04:24:28;99732.56;;;6.02;70.21
19286;BME280;9776;50.798;6.430;2022-11-20T04:26:55;99735.72;;;5.96;70.45
19286;BME280;9776;50.798;6.430;2022-11-20T04:29:22;99734.06;;;5.95;70.46
19286;BME280;9776;50.798;6.430;2022-11-20T04:31:48;99734.59;;;5.89;70.55
19286;BME280;9776;50.798;6.430;2022-11-20T04:34:15;99729.19;;;5.81;70.71
19286;BME280;9776;50.798;6.430;2022-11-20T04:36:41;99736.47;;;5.78;70.83
19286;BME280;9776;50.798;6.430;2022-11-20T04:39:12;99735.09;;;5.73;70.93
19286;BME280;9776;50.798;6.430;2022-11-20T04:41:40;99732.72;;;5.70;71.09
19286;BME280;9776;50.798;6.430;2022-11-20T04:44:07;99743.31;;;5.69;71.28
19286;BME280;9776;50.798;6.430;2022-11-20T04:46:35;99736.44;;;5.68;71.15
19286;BME280;9776;50.798;6.430;2022-11-20T04:49:03;99740.03;;;5.67;71.38
19286;BME280;9776;50.798;6.430;2022-11-20T04:51:30;99740.16;;;5.65;71.34
19286;BME280;9776;50.798;6.430;2022-11-20T04:53:56;99728.72;;;5.66;71.28
19286;BME280;9776;50.798;6.430;2022-11-20T04:56:23;99731.06;;;5.69;71.41
19286;BME280;9776;50.798;6.430;2022-11-20T04:58:51;99725.84;;;5.69;71.37
19286;BME280;9776;50.798;6.430;2022-11-20T05:01:20;99726.53;;;5.71;71.38
19286;BME280;9776;50.798;6.430;2022-11-20T05:03:47;99728.59;;;5.68;71.36
19286;BME280;9776;50.798;6.430;2022-11-20T05:06:16;99727.75;;;5.67;71.59
19286;BME280;9776;50.798;6.430;2022-11-20T05:08:43;99725.16;;;5.67;71.52
19286;BME280;9776;50.798;6.430;2022-11-20T05:11:12;99728.59;;;5.78;71.15
19286;BME280;9776;50.798;6.430;2022-11-20T05:13:39;99732.63;;;5.82;71.24
19286;BME280;9776;50.798;6.430;2022-11-20T05:16:09;99736.09;;;5.82;71.30
19286;BME280;9776;50.798;6.430;2022-11-20T05:18:36;99735.94;;;5.84;71.18
19286;BME280;9776;50.798;6.430;2022-11-20T05:21:04;99726.75;;;5.89;71.16
19286;BME280;9776;50.798;6.430;2022-11-20T05:23:32;99731.19;;;5.98;70.98
19286;BME280;9776;50.798;6.430;2022-11-20T05:25:59;99733.00;;;6.07;70.90
19286;BME280;9776;50.798;6.430;2022-11-20T05:28:27;99724.88;;;6.10;70.74
19286;BME280;9776;50.798;6.430;2022-11-20T05:30:55;99733.13;;;6.15;70.68
19286;BME280;9776;50.798;6.430;2022-11-20T05:33:23;99725.84;;;6.19;70.59
19286;BME280;9776;50.798;6.430;2022-11-20T05:35:49;99739.63;;;6.21;70.48
19286;BME280;9776;50.798;6.430;2022-11-20T05:38:16;99729.16;;;6.21;70.43
19286;BME280;9776;50.798;6.430;2022-11-20T05:40:43;99731.38;;;6.25;70.42
19286;BME280;9776;50.798;6.430;2022-11-20T05:43:09;99736.34;;;6.28;70.49
19286;BME280;9776;50.798;6.430;2022-11-20T05:45:36;99732.31;;;6.24;70.23
19286;BME280;9776;50.798;6.430;2022-11-20T05:48:03;99726.41;;;6.22;70.37
19286;BME280;9776;50.798;6.430;2022-11-20T05:50:31;99723.91;;;6.21;70.51
19286;BME280;9776;50.798;6.430;2022-11-20T05:52:58;99729.84;;;6.23;70.41
19286;BME280;9776;50.798;6.430;2022-11-20T05:55:25;99726.13;;;6.25;70.31
19286;BME280;9776;50.798;6.430;2022-11-20T05:57:52;99725.72;;;6.30;70.10
19286;BME280;9776;50.798;6.430;2022-11-20T06:00:19;99722.13;;;6.31;70.18
19286;BME280;9776;50.798;6.430;2022-11-20T06:02:46;99724.88;;;6.29;70.15
19286;BME280;9776;50.798;6.430;2022-11-20T06:05:12;99721.72;;;6.26;70.41
19286;BME280;9776;50.798;6.430;2022-11-20T06:07:40;99725.28;;;6.25;70.24
19286;BME280;9776;50.798;6.430;2022-11-20T06:10:08;99720.88;;;6.25;70.39
19286;BME280;9776;50.798;6.430;2022-11-20T06:12:34;99725.84;;;6.19;70.42
19286;BME280;9776;50.798;6.430;2022-11-20T06:15:01;99728.63;;;6.17;70.54
19286;BME280;9776;50.798;6.430;2022-11-20T06:17:28;99725.84;;;6.19;70.38
19286;BME280;9776;50.798;6.430;2022-11-20T06:19:54;99729.84;;;6.23;70.53
19286;BME280;9776;50.798;6.430;2022-11-20T06:22:21;99734.81;;;6.26;70.35
19286;BME280;9776;50.798;6.430;2022-11-20T06:24:49;99740.75;;;6.28;70.48
19286;BME280;9776;50.798;6.430;2022-11-20T06:27:16;99737.84;;;6.31;70.30
19286;BME280;9776;50.798;6.430;2022-11-20T06:29:42;99740.22;;;6.34;70.23
19286;BME280;9776;50.798;6.430;2022-11-20T06:32:09;99745.44;;;6.34;70.24
19286;BME280;9776;50.798;6.430;2022-11-20T06:34:36;99739.94;;;6.37;70.39
19286;BME280;9776;50.798;6.430;2022-11-20T06:37:02;99755.66;;;6.37;70.36
19286;BME280;9776;50.798;6.430;2022-11-20T06:39:29;99742.41;;;6.39;70.46
19286;BME280;9776;50.798;6.430;2022-11-20T06:41:57;99748.91;;;6.35;70.54
19286;BME280;9776;50.798;6.430;2022-11-20T06:44:23;99755.22;;;6.32;70.77
19286;BME280;9776;50.798;6.430;2022-11-20T06:46:50;99756.88;;;6.33;70.88
19286;BME280;9776;50.798;6.430;2022-11-20T06:49:17;99757.84;;;6.32;70.93
19286;BME280;9776;50.798;6.430;2022-11-20T06:51:43;99767.78;;;6.28;71.04
19286;BME280;9776;50.798;6.430;2022-11-20T06:54:10;99761.56;;;6.20;71.32
19286;BME280;9776;50.798;6.430;2022-11-20T06:56:36;99763.22;;;6.21;71.49
19286;BME280;9776;50.798;6.430;2022-11-20T06:59:05;99769.56;;;6.18;71.65
19286;BME280;9776;50.798;6.430;2022-11-20T07:01:32;99766.94;;;6.09;71.89
19286;BME280;9776;50.798;6.430;2022-11-20T07:04:00;99766.91;;;5.99;72.15
19286;BME280;9776;50.798;6.430;2022-11-20T07:06:27;99767.63;;;5.81;72.72
19286;BME280;9776;50.798;6.430;2022-11-20T07:08:53;99766.63;;;5.72;73.07
19286;BME280;9776;50.798;6.430;2022-11-20T07:11:20;99767.03;;;5.67;73.21
19286;BME280;9776;50.798;6.430;2022-11-20T07:13:47;99763.72;;;5.65;73.19
19286;BME280;9776;50.798;6.430;2022-11-20T07:16:15;99772.28;;;5.67;73.20
19286;BME280;9776;50.798;6.430;2022-11-20T07:18:41;99763.72;;;5.65;73.27
19286;BME280;9776;50.798;6.430;2022-11-20T07:21:09;99766.47;;;5.64;73.28
19286;BME280;9776;50.798;6.430;2022-11-20T07:23:36;99770.59;;;5.66;73.35
19286;BME280;9776;50.798;6.430;2022-11-20T07:26:04;99769.50;;;5.69;73.23
19286;BME280;9776;50.798;6.430;2022-11-20T07:28:31;99769.81;;;5.76;73.26
19286;BME280;9776;50.798;6.430;2022-11-20T07:30:58;99770.66;;;5.76;73.12
19286;BME280;9776;50.798;6.430;2022-11-20T07:33:26;99769.81;;;5.76;73.35
19286;BME280;9776;50.798;6.430;2022-11-20T07:35:53;99768.88;;;5.77;73.19
19286;BME280;9776;50.798;6.430;2022-11-20T07:38:19;99764.59;;;5.76;73.35
19286;BME280;9776;50.798;6.430;2022-11-20T07:40:46;99758.25;;;5.78;73.34
19286;BME280;9776;50.798;6.430;2022-11-20T07:43:12;99756.06;;;5.83;73.19
19286;BME280;9776;50.798;6.430;2022-11-20T07:45:39;99751.16;;;5.90;73.08
19286;BME280;9776;50.798;6.430;2022-11-20T07:48:06;99753.38;;;5.94;73.12
19286;BME280;9776;50.798;6.430;2022-11-20T07:50:34;99742.63;;;5.97;72.99
19286;BME280;9776;50.798;6.430;2022-11-20T07:53:02;99755.06;;;6.05;73.10
19286;BME280;9776;50.798;6.430;2022-11-20T07:55:29;99757.81;;;6.13;72.77
19286;BME280;9776;50.798;6.430;2022-11-20T07:57:55;99748.59;;;6.18;72.67
19286;BME280;9776;50.798;6.430;2022-11-20T08:00:22;99757.56;;;6.25;72.44
19286;BME280;9776;50.798;6.430;2022-11-20T08:02:50;99749.56;;;6.27;72.46
19286;BME280;9776;50.798;6.430;2022-11-20T08:05:17;99753.03;;;6.27;72.62
19286;BME280;9776;50.798;6.430;2022-11-20T08:07:45;99750.97;;;6.31;72.35
19286;BME280;9776;50.798;6.430;2022-11-20T08:10:13;99750.41;;;6.37;72.26
19286;BME280;9776;50.798;6.430;2022-11-20T08:12:44;99748.78;;;6.46;72.14
19286;BME280;9776;50.798;6.430;2022-11-20T08:15:28;99752.50;;;6.43;72.23
19286;BME280;9776;50.798;6.430;2022-11-20T08:17:59;99759.38;;;6.44;72.11
19286;BME280;9776;50.798;6.430;2022-11-20T08:20:26;99758.81;;;6.50;72.10
19286;BME280;9776;50.798;6.430;2022-11-20T08:22:57;99761.88;;;6.46;72.05
19286;BME280;9776;50.798;6.430;2022-11-20T08:25:24;99761.44;;;6.41;72.23
19286;BME280;9776;50.798;6.430;2022-11-20T08:27:51;99761.84;;;6.36;72.41
19286;BME280;9776;50.798;6.430;2022-11-20T08:30:18;99758.97;;;6.39;72.38
19286;BME280;9776;50.798;6.430;2022-11-20T08:32:45;99758.97;;;6.39;72.37
19286;BME280;9776;50.798;6.430;2022-11-20T08:35:11;99762.69;;;6.37;72.47
19286;BME280;9776;50.798;6.430;2022-11-20T08:37:38;99750.97;;;6.50;72.16
19286;BME280;9776;50.798;6.430;2022-11-20T08:40:09;99757.03;;;6.70;71.78
19286;BME280;9776;50.798;6.430;2022-11-20T08:42:36;99752.63;;;6.70;71.61
19286;BME280;9776;50.798;6.430;2022-11-20T08:45:04;99753.59;;;6.69;71.73
19286;BME280;9776;50.798;6.430;2022-11-20T08:47:31;99754.56;;;6.78;71.35
19286;BME280;9776;50.798;6.430;2022-11-20T08:49:57;99750.97;;;6.89;71.26
19286;BME280;9776;50.798;6.430;2022-11-20T08:52:24;99756.19;;;6.98;70.99
19286;BME280;9776;50.798;6.430;2022-11-20T08:54:50;99748.72;;;7.03;70.68
19286;BME280;9776;50.798;6.430;2022-11-20T08:57:18;99740.84;;;7.13;70.65
19286;BME280;9776;50.798;6.430;2022-11-20T08:59:45;99747.03;;;7.21;70.41
19286;BME280;9776;50.798;6.430;2022-11-20T09:02:12;99744.38;;;7.31;69.95
19286;BME280;9776;50.798;6.430;2022-11-20T09:04:38;99748.38;;;7.35;69.95
19286;BME280;9776;50.798;6.430;2022-11-20T09:07:05;99745.47;;;7.38;69.89
19286;BME280;9776;50.798;6.430;2022-11-20T09:09:32;99751.84;;;7.35;69.83
19286;BME280;9776;50.798;6.430;2022-11-20T09:11:58;99748.78;;;7.30;69.96
19286;BME280;9776;50.798;6.430;2022-11-20T09:14:26;99753.06;;;7.31;69.68
19286;BME280;9776;50.798;6.430;2022-11-20T09:16:55;99744.66;;;7.28;69.70
19286;BME280;9776;50.798;6.430;2022-11-20T09:19:23;99742.44;;;7.33;69.72
19286;BME280;9776;50.798;6.430;2022-11-20T09:21:50;99737.59;;;7.38;69.58
19286;BME280;9776;50.798;6.430;2022-11-20T09:24:16;99730.50;;;7.48;69.08
19286;BME280;9776;50.798;6.430;2022-11-20T09:26:43;99730.16;;;7.61;68.90
19286;BME280;9776;50.798;6.430;2022-11-20T09:29:10;99735.69;;;7.67;68.59
19286;BME280;9776;50.798;6.430;2022-11-20T09:31:38;99739.94;;;7.68;68.47
19286;BME280;9776;50.798;6.430;2022-11-20T09:34:04;99743.28;;;7.70;68.30
19286;BME280;9776;50.798;6.430;2022-11-20T09:36:31;99741.59;;;7.69;68.36
19286;BME280;9776;50.798;6.430;2022-11-20T09:38:58;99725.31;;;7.66;68.40
19286;BME280;9776;50.798;6.430;2022-11-20T09:41:36;99724.63;;;7.64;68.26
19286;BME280;9776;50.798;6.430;2022-11-20T09:44:23;99722.97;;;7.63;68.47
19286;BME280;9776;50.798;6.430;2022-11-20T09:46:59;99714.25;;;7.62;68.42
19286;BME280;9776;50.798;6.430;2022-11-20T09:49:35;99715.16;;;7.53;68.47
19286;BME280;9776;50.798;6.430;2022-11-20T09:52:12;99714.44;;;7.51;68.67
19286;BME280;9776;50.798;6.430;2022-11-20T09:54:44;99707.28;;;7.53;68.48
19286;BME280;9776;50.798;6.430;2022-11-20T09:57:14;99710.19;;;7.50;68.50
19286;BME280;9776;50.798;6.430;2022-11-20T09:59:45;99713.38;;;7.44;68.61
19286;BME280;9776;50.798;6.430;2022-11-20T10:02:22;99706.91;;;7.38;68.69
19286;BME280;9776;50.798;6.430;2022-11-20T10:04:53;99711.88;;;7.41;68.67
19286;BME280;9776;50.798;6.430;2022-11-20T10:07:29;99704.97;;;7.40;68.62
19286;BME280;9776;50.798;6.430;2022-11-20T10:09:57;99703.75;;;7.35;68.68
19286;BME280;9776;50.798;6.430;2022-11-20T10:12:31;99697.22;;;7.39;68.78
19286;BME280;9776;50.798;6.430;2022-11-20T10:15:10;99704.00;;;7.41;68.78
19286;BME280;9776;50.798;6.430;2022-11-20T10:17:58;99700.94;;;7.46;68.58
19286;BME280;9776;50.798;6.430;2022-11-20T10:20:37;99694.16;;;7.53;68.47
19286;BME280;9776;50.798;6.430;2022-11-20T10:23:18;99692.47;;;7.52;68.36
19286;BME280;9776;50.798;6.430;2022-11-20T10:25:53;99679.19;;;7.54;68.66
19286;BME280;9776;50.798;6.430;2022-11-20T10:28:30;99681.53;;;7.57;68.64
19286;BME280;9776;50.798;6.430;2022-11-20T10:31:03;99685.91;;;7.66;68.48
19286;BME280;9776;50.798;6.430;2022-11-20T10:33:39;99673.59;;;7.66;68.42
19286;BME280;9776;50.798;6.430;2022-11-20T10:36:13;99675.56;;;7.64;68.57
19286;BME280;9776;50.798;6.430;2022-11-20T10:38:44;99670.41;;;7.72;68.47
19286;BME280;9776;50.798;6.430;2022-11-20T10:41:19;99675.28;;;7.67;68.68
19286;BME280;9776;50.798;6.430;2022-11-20T10:43:59;99668.94;;;7.60;68.65
19286;BME280;9776;50.798;6.430;2022-11-20T10:46:34;99662.03;;;7.59;68.63
19286;BME280;9776;50.798;6.430;2022-11-20T10:49:12;99673.22;;;7.61;68.84
19286;BME280;9776;50.798;6.430;2022-11-20T10:51:50;99662.72;;;7.61;68.69
19286;BME280;9776;50.798;6.430;2022-11-20T10:54:22;99652.88;;;7.63;68.77
19286;BME280;9776;50.798;6.430;2022-11-20T10:56:55;99642.38;;;7.63;68.86
19286;BME280;9776;50.798;6.430;2022-11-20T11:02:21;99632.97;;;7.70;68.86
19286;BME280;9776;50.798;6.430;2022-11-20T11:04:50;99627.69;;;7.70;68.67
19286;BME280;9776;50.798;6.430;2022-11-20T11:07:21;99624.38;;;7.68;68.82
19286;BME280;9776;50.798;6.430;2022-11-20T11:09:50;99624.91;;;7.72;68.95
19286;BME280;9776;50.798;6.430;2022-11-20T11:12:19;99612.53;;;7.64;69.06
19286;BME280;9776;50.798;6.430;2022-11-20T11:14:49;99610.41;;;7.68;69.09
19286;BME280;9776;50.798;6.430;2022-11-20T11:17:25;99606.41;;;7.73;68.74
19286;BME280;9776;50.798;6.430;2022-11-20T11:20:06;99603.44;;;7.76;68.76
19286;BME280;9776;50.798;6.430;2022-11-20T11:22:39;99597.22;;;7.77;68.85
19286;BME280;9776;50.798;6.430;2022-11-20T11:25:19;99596.09;;;7.80;68.55
19286;BME280;9776;50.798;6.430;2022-11-20T11:27:46;99589.66;;;7.92;68.57
19286;BME280;9776;50.798;6.430;2022-11-20T11:30:16;99574.84;;;8.09;68.39
19286;BME280;9776;50.798;6.430;2022-11-20T11:32:43;99571.09;;;8.29;67.80
19286;BME280;9776;50.798;6.430;2022-11-20T11:35:25;99564.47;;;8.42;67.45
19286;BME280;9776;50.798;6.430;2022-11-20T11:37:54;99570.16;;;8.64;67.07
19286;BME280;9776;50.798;6.430;2022-11-20T11:40:29;99560.25;;;8.83;66.80
19286;BME280;9776;50.798;6.430;2022-11-20T11:42:59;99553.72;;;8.95;66.40
19286;BME280;9776;50.798;6.430;2022-11-20T11:45:26;99546.19;;;9.00;66.51
19286;BME280;9776;50.798;6.430;2022-11-20T11:47:53;99547.84;;;9.01;66.38
19286;BME280;9776;50.798;6.430;2022-11-20T11:50:24;99542.22;;;8.96;66.25
19286;BME280;9776;50.798;6.430;2022-11-20T11:52:58;99527.72;;;8.92;66.57
19286;BME280;9776;50.798;6.430;2022-11-20T11:55:35;99525.78;;;8.94;66.44
19286;BME280;9776;50.798;6.430;2022-11-20T11:58:19;99529.22;;;8.95;66.36
19286;BME280;9776;50.798;6.430;2022-11-20T12:00:54;99528.28;;;9.04;66.22
19286;BME280;9776;50.798;6.430;2022-11-20T12:03:27;99527.44;;;9.03;66.53
19286;BME280;9776;50.798;6.430;2022-11-20T12:06:00;99528.44;;;9.02;66.51
19286;BME280;9776;50.798;6.430;2022-11-20T12:08:31;99522.16;;;9.03;66.45
19286;BME280;9776;50.798;6.430;2022-11-20T12:11:03;99520.88;;;9.07;66.39
19286;BME280;9776;50.798;6.430;2022-11-20T12:13:39;99515.75;;;8.98;66.74
19286;BME280;9776;50.798;6.430;2022-11-20T12:16:10;99515.25;;;8.94;66.68
19286;BME280;9776;50.798;6.430;2022-11-20T12:18:38;99511.94;;;8.92;66.86
19286;BME280;9776;50.798;6.430;2022-11-20T12:21:18;99506.34;;;8.95;66.74
19286;BME280;9776;50.798;6.430;2022-11-20T12:23:57;99500.16;;;9.04;66.53
19286;BME280;9776;50.798;6.430;2022-11-20T12:26:36;99503.63;;;9.13;66.34
19286;BME280;9776;50.798;6.430;2022-11-20T12:29:09;99497.41;;;9.22;66.50
19286;BME280;9776;50.798;6.430;2022-11-20T12:31:58;99498.22;;;9.23;66.12
19286;BME280;9776;50.798;6.430;2022-11-20T12:34:44;99490.47;;;9.21;66.19
19286;BME280;9776;50.798;6.430;2022-11-20T12:37:27;99485.06;;;9.15;66.40
19286;BME280;9776;50.798;6.430;2022-11-20T12:39:58;99484.03;;;9.07;66.63
19286;BME280;9776;50.798;6.430;2022-11-20T12:42:45;99484.34;;;9.04;66.36
19286;BME280;9776;50.798;6.430;2022-11-20T12:45:43;99488.97;;;9.02;66.70
19286;BME280;9776;50.798;6.430;2022-11-20T12:48:23;99477.09;;;9.06;66.49
19286;BME280;9776;50.798;6.430;2022-11-20T12:51:02;99467.59;;;9.13;66.53
19286;BME280;9776;50.798;6.430;2022-11-20T12:53:39;99460.69;;;9.12;66.56
19286;BME280;9776;50.798;6.430;2022-11-20T12:56:18;99452.31;;;9.09;66.48
19286;BME280;9776;50.798;6.430;2022-11-20T12:59:01;99450.63;;;9.00;66.76
19286;BME280;9776;50.798;6.430;2022-11-20T13:01:37;99446.16;;;8.92;66.72
19286;BME280;9776;50.798;6.430;2022-11-20T13:04:16;99438.88;;;8.78;67.34
19286;BME280;9776;50.798;6.430;2022-11-20T13:06:45;99440.34;;;8.73;67.39
19286;BME280;9776;50.798;6.430;2022-11-20T13:09:15;99432.94;;;8.68;67.55
19286;BME280;9776;50.798;6.430;2022-11-20T13:11:47;99433.59;;;8.70;67.74
19286;BME280;9776;50.798;6.430;2022-11-20T13:14:26;99422.25;;;8.70;67.70
19286;BME280;9776;50.798;6.430;2022-11-20T13:16:59;99418.66;;;8.87;67.72
19286;BME280;9776;50.798;6.430;2022-11-20T13:19:28;99415.25;;;9.02;67.33
19286;BME280;9776;50.798;6.430;2022-11-20T13:21:55;99413.28;;;9.12;67.13
19286;BME280;9776;50.798;6.430;2022-11-20T13:24:25;99404.56;;;9.12;66.90
19286;BME280;9776;50.798;6.430;2022-11-20T13:27:04;99407.84;;;8.98;67.30
19286;BME280;9776;50.798;6.430;2022-11-20T13:29:32;99407.69;;;8.91;67.59
19286;BME280;9776;50.798;6.430;2022-11-20T13:32:04;99403.72;;;8.87;67.83
19286;BME280;9776;50.798;6.430;2022-11-20T13:34:32;99392.84;;;8.82;67.92
19286;BME280;9776;50.798;6.430;2022-11-20T13:36:59;99389.38;;;8.66;68.18